createdAt,value
2023-01-30T00:00:15.505Z,-0.97
2023-01-30T00:01:47.711Z,-0.97
2023-01-30T00:03:20.015Z,-0.95
2023-01-30T00:04:51.786Z,-0.95
2023-01-30T00:06:24.519Z,-0.92
2023-01-30T00:07:56.287Z,-0.91
2023-01-30T00:09:27.999Z,-0.91
2023-01-30T00:11:05.236Z,-0.92
2023-01-30T00:12:36.922Z,-0.90
2023-01-30T00:14:08.801Z,-0.90
2023-01-30T00:15:41.199Z,-0.90
2023-01-30T00:17:12.913Z,-0.89
2023-01-30T00:18:44.862Z,-0.87
2023-01-30T00:20:17.241Z,-0.85
2023-01-30T00:21:49.228Z,-0.85
2023-01-30T00:23:20.950Z,-0.82
2023-01-30T00:24:52.900Z,-0.82
2023-01-30T00:26:24.710Z,-0.82
2023-01-30T00:27:56.753Z,-0.82
2023-01-30T00:29:28.489Z,-0.80
2023-01-30T00:31:00.534Z,-0.80
2023-01-30T00:32:32.479Z,-0.80
2023-01-30T00:34:04.284Z,-0.78
2023-01-30T00:35:36.384Z,-0.75
2023-01-30T00:37:08.755Z,-0.79
2023-01-30T00:38:40.668Z,-0.78
2023-01-30T00:40:12.493Z,-0.77
2023-01-30T00:42:02.918Z,-0.75
2023-01-30T00:43:53.616Z,-0.75
2023-01-30T00:45:43.906Z,-0.76
2023-01-30T00:47:16.365Z,-0.78
2023-01-30T00:48:48.263Z,-0.79
2023-01-30T00:50:20.001Z,-0.77
2023-01-30T00:51:51.835Z,-0.77
2023-01-30T00:53:24.229Z,-0.78
2023-01-30T00:54:56.042Z,-0.76
2023-01-30T00:56:27.806Z,-0.76
2023-01-30T00:57:59.528Z,-0.78
2023-01-30T00:59:31.565Z,-0.76
2023-01-30T01:01:03.634Z,-0.74
2023-01-30T01:02:35.724Z,-0.75
2023-01-30T01:04:08.994Z,-0.75
2023-01-30T01:05:40.832Z,-0.72
2023-01-30T01:07:14.053Z,-0.74
2023-01-30T01:08:46.281Z,-0.73
2023-01-30T01:10:18.117Z,-0.72
2023-01-30T01:11:49.821Z,-0.71
2023-01-30T01:13:21.544Z,-0.71
2023-01-30T01:14:53.356Z,-0.70
2023-01-30T01:16:27.764Z,-0.70
2023-01-30T01:17:59.772Z,-0.68
2023-01-30T01:19:31.780Z,-0.69
2023-01-30T01:21:04.636Z,-0.68
2023-01-30T01:22:36.666Z,-0.68
2023-01-30T01:24:12.903Z,-0.68
2023-01-30T01:25:45.488Z,-0.67
2023-01-30T01:27:17.223Z,-0.66
2023-01-30T01:28:49.204Z,-0.66
2023-01-30T01:30:21.269Z,-0.67
2023-01-30T01:31:53.043Z,-0.67
2023-01-30T01:33:28.103Z,-0.67
2023-01-30T01:34:59.982Z,-0.67
2023-01-30T01:37:01.856Z,-0.67
2023-01-30T01:38:23.733Z,-0.68
2023-01-30T01:40:15.158Z,-0.62
2023-01-30T01:41:46.901Z,-0.64
2023-01-30T01:43:22.080Z,-0.66
2023-01-30T01:45:06.097Z,-0.67
2023-01-30T01:46:40.354Z,-0.66
2023-01-30T01:48:22.576Z,-0.67
2023-01-30T01:49:55.067Z,-0.63
2023-01-30T01:51:30.922Z,-0.65
2023-01-30T01:53:02.811Z,-0.64
2023-01-30T01:54:49.723Z,-0.64
2023-01-30T01:56:22.282Z,-0.61
2023-01-30T01:58:05.444Z,-0.62
2023-01-30T01:59:46.482Z,-0.63
2023-01-30T02:01:21.619Z,-0.61
2023-01-30T02:03:05.905Z,-0.63
2023-01-30T02:05:01.621Z,-0.65
2023-01-30T02:06:33.872Z,-0.66
2023-01-30T02:08:13.973Z,-0.67
2023-01-30T02:09:45.847Z,-0.67
2023-01-30T02:11:37.383Z,-0.71
2023-01-30T02:13:09.696Z,-0.73
2023-01-30T02:14:42.461Z,-0.72
2023-01-30T02:16:14.653Z,-0.73
2023-01-30T02:17:46.584Z,-0.73
2023-01-30T02:19:35.023Z,-0.76
2023-01-30T02:21:34.504Z,-0.76
2023-01-30T02:23:27.827Z,-0.78
2023-01-30T02:25:22.696Z,-0.80
2023-01-30T02:26:54.511Z,-0.78
2023-01-30T02:28:58.573Z,-0.83
2023-01-30T02:31:03.078Z,-0.87
2023-01-30T02:32:49.302Z,-0.85
2023-01-30T02:34:39.941Z,-0.88
2023-01-30T02:36:35.516Z,-0.90
2023-01-30T02:38:39.471Z,-0.89
2023-01-30T02:40:15.734Z,-0.87
2023-01-30T02:42:08.814Z,-0.88
2023-01-30T02:44:04.115Z,-0.87
2023-01-30T02:45:48.999Z,-0.84
2023-01-30T02:48:02.650Z,-0.82
2023-01-30T02:49:46.017Z,-0.80
2023-01-30T02:51:24.202Z,-0.75
2023-01-30T02:52:57.748Z,-0.70
2023-01-30T02:54:29.661Z,-0.70
2023-01-30T02:56:01.656Z,-0.65
2023-01-30T02:57:33.469Z,-0.61
2023-01-30T02:59:07.127Z,-0.57
2023-01-30T03:01:00.148Z,-0.56
2023-01-30T03:02:50.782Z,-0.53
2023-01-30T03:04:35.893Z,-0.47
2023-01-30T03:06:29.475Z,-0.44
2023-01-30T03:08:14.455Z,-0.37
2023-01-30T03:09:58.081Z,-0.36
2023-01-30T03:11:46.111Z,-0.33
2023-01-30T03:13:34.802Z,-0.28
2023-01-30T03:15:29.901Z,-0.31
2023-01-30T03:17:04.874Z,-0.24
2023-01-30T03:18:37.395Z,-0.22
2023-01-30T03:20:10.590Z,-0.18
2023-01-30T03:21:44.708Z,-0.17
2023-01-30T03:23:16.862Z,-0.15
2023-01-30T03:24:50.948Z,-0.12
2023-01-30T03:26:29.709Z,-0.10
2023-01-30T03:28:03.963Z,-0.05
2023-01-30T03:29:35.938Z,-0.04
2023-01-30T03:31:09.268Z,-0.02
2023-01-30T03:32:41.147Z,0.01
2023-01-30T03:34:12.993Z,0.03
2023-01-30T03:35:45.170Z,0.04
2023-01-30T03:37:18.378Z,0.06
2023-01-30T03:38:52.005Z,0.06
2023-01-30T03:40:24.558Z,0.07
2023-01-30T03:41:56.551Z,0.07
2023-01-30T03:43:28.747Z,0.07
2023-01-30T03:45:00.488Z,0.07
2023-01-30T03:46:32.321Z,0.10
2023-01-30T03:48:04.237Z,0.07
2023-01-30T03:49:36.968Z,0.08
2023-01-30T03:51:08.740Z,0.08
2023-01-30T03:52:40.514Z,0.09
2023-01-30T03:54:16.503Z,0.09
2023-01-30T03:55:48.600Z,0.10
2023-01-30T03:57:22.184Z,0.13
2023-01-30T03:58:54.071Z,0.16
2023-01-30T04:00:34.369Z,0.17
2023-01-30T04:02:08.384Z,0.23
2023-01-30T04:03:40.296Z,0.26
2023-01-30T04:05:12.127Z,0.28
2023-01-30T04:06:47.237Z,0.33
2023-01-30T04:08:19.000Z,0.37
2023-01-30T04:09:51.474Z,0.39
2023-01-30T04:11:25.048Z,0.45
2023-01-30T04:12:56.988Z,0.47
2023-01-30T04:14:29.483Z,0.50
2023-01-30T04:16:28.616Z,0.54
2023-01-30T04:18:03.350Z,0.57
2023-01-30T04:19:35.092Z,0.61
2023-01-30T04:21:07.058Z,0.63
2023-01-30T04:22:42.749Z,0.67
2023-01-30T04:24:14.745Z,0.66
2023-01-30T04:25:47.139Z,0.70
2023-01-30T04:27:21.353Z,0.71
2023-01-30T04:29:11.800Z,0.76
2023-01-30T04:30:44.684Z,0.78
2023-01-30T04:32:35.219Z,0.80
2023-01-30T04:34:07.042Z,0.82
2023-01-30T04:35:39.900Z,0.85
2023-01-30T04:37:12.589Z,0.86
2023-01-30T04:38:44.544Z,0.88
2023-01-30T04:40:16.544Z,0.89
2023-01-30T04:41:49.366Z,0.92
2023-01-30T04:43:22.626Z,0.95
2023-01-30T04:45:17.424Z,0.96
2023-01-30T04:46:49.452Z,1.00
2023-01-30T04:48:23.527Z,1.02
2023-01-30T04:49:55.829Z,1.05
2023-01-30T04:51:27.607Z,1.09
2023-01-30T04:52:59.391Z,1.09
2023-01-30T04:54:31.190Z,1.14
2023-01-30T04:56:02.992Z,1.16
2023-01-30T04:57:34.743Z,1.20
2023-01-30T04:59:06.540Z,1.20
2023-01-30T05:00:43.306Z,1.25
2023-01-30T05:02:15.136Z,1.27
2023-01-30T05:03:55.772Z,1.28
2023-01-30T05:05:28.103Z,1.33
2023-01-30T05:06:59.873Z,1.37
2023-01-30T05:08:31.565Z,1.33
2023-01-30T05:10:03.445Z,1.40
2023-01-30T05:11:35.427Z,1.42
2023-01-30T05:13:07.410Z,1.46
2023-01-30T05:14:41.444Z,1.47
2023-01-30T05:16:15.035Z,1.49
2023-01-30T05:17:46.809Z,1.50
2023-01-30T05:19:19.024Z,1.53
2023-01-30T05:20:50.748Z,1.56
2023-01-30T05:22:22.541Z,1.59
2023-01-30T05:23:55.773Z,1.58
2023-01-30T05:25:27.517Z,1.59
2023-01-30T05:26:59.255Z,1.62
2023-01-30T05:28:31.635Z,1.64
2023-01-30T05:30:04.044Z,1.64
2023-01-30T05:31:35.866Z,1.65
2023-01-30T05:33:07.593Z,1.67
2023-01-30T05:34:39.319Z,1.68
2023-01-30T05:36:15.514Z,1.65
2023-01-30T05:37:51.051Z,1.70
2023-01-30T05:39:22.802Z,1.71
2023-01-30T05:41:06.062Z,1.67
2023-01-30T05:42:37.867Z,1.69
2023-01-30T05:44:11.663Z,1.72
2023-01-30T05:45:44.159Z,1.72
2023-01-30T05:47:16.125Z,1.72
2023-01-30T05:48:48.024Z,1.73
2023-01-30T05:50:19.962Z,1.73
2023-01-30T05:51:51.802Z,1.75
2023-01-30T05:53:25.232Z,1.74
2023-01-30T05:54:57.092Z,1.74
2023-01-30T05:56:30.546Z,1.72
2023-01-30T05:58:02.283Z,1.73
2023-01-30T05:59:34.001Z,1.73
2023-01-30T06:01:11.447Z,1.75
2023-01-30T06:02:43.203Z,1.75
2023-01-30T06:04:15.028Z,1.74
2023-01-30T06:05:46.899Z,1.76
2023-01-30T06:07:18.649Z,1.75
2023-01-30T06:08:54.430Z,1.76
2023-01-30T06:10:26.203Z,1.76
2023-01-30T06:11:57.968Z,1.76
2023-01-30T06:13:29.856Z,1.78
2023-01-30T06:15:01.598Z,1.80
2023-01-30T06:16:33.412Z,1.79
2023-01-30T06:18:05.277Z,1.83
2023-01-30T06:19:37.012Z,1.87
2023-01-30T06:21:09.664Z,1.87
2023-01-30T06:22:41.471Z,1.88
2023-01-30T06:24:13.191Z,1.88
2023-01-30T06:25:48.906Z,1.89
2023-01-30T06:27:20.680Z,1.92
2023-01-30T06:28:52.478Z,1.94
2023-01-30T06:30:24.278Z,1.97
2023-01-30T06:31:56.044Z,1.96
2023-01-30T06:33:28.022Z,1.98
2023-01-30T06:34:59.843Z,2.00
2023-01-30T06:36:32.489Z,2.01
2023-01-30T06:38:04.239Z,2.01
2023-01-30T06:39:35.980Z,2.05
2023-01-30T06:41:07.752Z,2.05
2023-01-30T06:42:43.846Z,2.08
2023-01-30T06:44:15.720Z,2.09
2023-01-30T06:45:47.589Z,2.10
2023-01-30T06:47:19.497Z,2.10
2023-01-30T06:48:51.292Z,2.10
2023-01-30T06:50:28.569Z,2.12
2023-01-30T06:52:00.300Z,2.14
2023-01-30T06:53:32.104Z,2.14
2023-01-30T06:55:04.062Z,2.14
2023-01-30T06:56:35.927Z,2.17
2023-01-30T06:58:12.903Z,2.14
2023-01-30T06:59:44.662Z,2.13
2023-01-30T07:01:16.482Z,2.11
2023-01-30T07:02:50.686Z,2.12
2023-01-30T07:04:22.452Z,2.09
2023-01-30T07:05:54.280Z,2.06
2023-01-30T07:07:25.990Z,2.05
2023-01-30T07:08:58.739Z,2.02
2023-01-30T07:10:32.517Z,1.99
2023-01-30T07:12:04.350Z,1.99
2023-01-30T07:13:36.140Z,1.97
2023-01-30T07:15:09.267Z,1.99
2023-01-30T07:16:41.047Z,1.97
2023-01-30T07:18:13.157Z,1.96
2023-01-30T07:19:45.621Z,1.96
2023-01-30T07:21:17.401Z,1.96
2023-01-30T07:22:55.218Z,1.97
2023-01-30T07:24:26.956Z,1.97
2023-01-30T07:25:58.697Z,2.00
2023-01-30T07:27:30.441Z,2.01
2023-01-30T07:29:02.150Z,2.06
2023-01-30T07:30:36.238Z,2.07
2023-01-30T07:32:15.316Z,2.08
2023-01-30T07:33:47.118Z,2.13
2023-01-30T07:35:19.356Z,2.18
2023-01-30T07:36:51.189Z,2.21
2023-01-30T07:38:22.989Z,2.21
2023-01-30T07:39:54.715Z,2.23
2023-01-30T07:41:27.560Z,2.25
2023-01-30T07:43:04.670Z,2.28
2023-01-30T07:44:36.901Z,2.33
2023-01-30T07:46:09.103Z,2.34
2023-01-30T07:47:40.868Z,2.37
2023-01-30T07:49:12.605Z,2.40
2023-01-30T07:50:45.085Z,2.42
2023-01-30T07:52:16.863Z,2.44
2023-01-30T07:53:51.825Z,2.45
2023-01-30T07:55:23.615Z,2.47
2023-01-30T07:56:55.343Z,2.49
2023-01-30T07:58:27.925Z,2.52
2023-01-30T08:00:01.047Z,2.54
2023-01-30T08:01:33.106Z,2.53
2023-01-30T08:03:04.803Z,2.55
2023-01-30T08:04:36.824Z,2.56
2023-01-30T08:06:08.687Z,2.58
2023-01-30T08:07:40.779Z,2.60
2023-01-30T08:09:12.531Z,2.62
2023-01-30T08:10:44.607Z,2.63
2023-01-30T08:12:16.342Z,2.65
2023-01-30T08:13:48.112Z,2.65
2023-01-30T08:15:21.940Z,2.67
2023-01-30T08:16:56.807Z,2.66
2023-01-30T08:18:29.682Z,2.67
2023-01-30T08:20:01.427Z,2.65
2023-01-30T08:21:33.184Z,2.65
2023-01-30T08:23:05.369Z,2.62
2023-01-30T08:24:37.119Z,2.60
2023-01-30T08:26:08.963Z,2.57
2023-01-30T08:27:40.710Z,2.58
2023-01-30T08:29:12.430Z,2.54
2023-01-30T08:30:44.194Z,2.53
2023-01-30T08:32:18.817Z,2.50
2023-01-30T08:33:50.691Z,2.52
2023-01-30T08:35:22.421Z,2.49
2023-01-30T08:36:54.118Z,2.49
2023-01-30T08:38:25.908Z,2.47
2023-01-30T08:39:57.843Z,2.46
2023-01-30T08:41:29.606Z,2.47
2023-01-30T08:43:01.747Z,2.49
2023-01-30T08:44:33.479Z,2.51
2023-01-30T08:46:05.504Z,2.53
2023-01-30T08:47:37.360Z,2.55
2023-01-30T08:49:10.784Z,2.58
2023-01-30T08:50:42.510Z,2.60
2023-01-30T08:52:14.242Z,2.62
2023-01-30T08:53:45.998Z,2.68
2023-01-30T08:55:18.595Z,2.72
2023-01-30T08:56:50.354Z,2.79
2023-01-30T08:58:22.583Z,2.83
2023-01-30T08:59:54.309Z,2.87
2023-01-30T09:01:26.153Z,2.91
2023-01-30T09:02:58.629Z,2.96
2023-01-30T09:04:31.113Z,3.01
2023-01-30T09:06:02.942Z,3.04
2023-01-30T09:07:34.990Z,3.07
2023-01-30T09:09:06.737Z,3.12
2023-01-30T09:10:38.503Z,3.17
2023-01-30T09:12:10.257Z,3.17
2023-01-30T09:13:43.716Z,3.23
2023-01-30T09:15:15.525Z,3.26
2023-01-30T09:16:48.538Z,3.29
2023-01-30T09:18:20.774Z,3.31
2023-01-30T09:19:52.622Z,3.34
2023-01-30T09:21:24.667Z,3.37
2023-01-30T09:22:56.400Z,3.41
2023-01-30T09:24:28.409Z,3.45
2023-01-30T09:26:00.624Z,3.48
2023-01-30T09:27:32.759Z,3.53
2023-01-30T09:29:04.493Z,3.53
2023-01-30T09:30:36.389Z,3.54
2023-01-30T09:32:08.198Z,3.55
2023-01-30T09:33:40.212Z,3.57
2023-01-30T09:35:12.309Z,3.58
2023-01-30T09:36:44.098Z,3.60
2023-01-30T09:38:16.324Z,3.59
2023-01-30T09:39:48.072Z,3.60
2023-01-30T09:41:51.927Z,3.57
2023-01-30T09:43:57.110Z,3.57
2023-01-30T09:45:42.209Z,3.59
2023-01-30T09:47:19.361Z,3.61
2023-01-30T09:49:26.459Z,3.61
2023-01-30T09:51:11.211Z,3.68
2023-01-30T09:52:45.808Z,3.70
2023-01-30T09:54:29.844Z,3.72
2023-01-30T09:56:01.829Z,3.76
2023-01-30T09:57:33.633Z,3.78
2023-01-30T09:59:05.757Z,3.81
2023-01-30T10:00:42.100Z,3.82
2023-01-30T10:02:29.427Z,3.83
2023-01-30T10:04:15.862Z,3.88
2023-01-30T10:06:06.196Z,3.96
2023-01-30T10:08:02.752Z,4.02
2023-01-30T10:09:40.466Z,4.07
2023-01-30T10:11:44.225Z,4.12
2023-01-30T10:13:33.822Z,4.18
2023-01-30T10:15:34.879Z,4.24
2023-01-30T10:17:31.577Z,4.32
2023-01-30T10:19:35.376Z,4.43
2023-01-30T10:21:40.493Z,4.44
2023-01-30T10:23:30.160Z,4.48
2023-01-30T10:25:28.538Z,4.53
2023-01-30T10:27:00.404Z,4.56
2023-01-30T10:28:40.508Z,4.60
2023-01-30T10:30:14.704Z,4.64
2023-01-30T10:31:56.069Z,4.65
2023-01-30T10:33:33.853Z,4.64
2023-01-30T10:35:30.263Z,4.68
2023-01-30T10:37:14.703Z,4.69
2023-01-30T10:38:49.391Z,4.70
2023-01-30T10:40:36.266Z,4.71
2023-01-30T10:42:19.954Z,4.69
2023-01-30T10:44:06.054Z,4.71
2023-01-30T10:46:05.800Z,4.72
2023-01-30T10:47:55.575Z,4.70
2023-01-30T10:49:44.129Z,4.68
2023-01-30T10:51:37.668Z,4.66
2023-01-30T10:53:20.096Z,4.62
2023-01-30T10:54:58.503Z,4.58
2023-01-30T10:56:58.176Z,4.48
2023-01-30T10:58:48.863Z,4.45
2023-01-30T11:00:42.707Z,4.36
2023-01-30T11:02:19.255Z,4.33
2023-01-30T11:03:56.993Z,4.28
2023-01-30T11:05:40.136Z,4.25
2023-01-30T11:07:12.790Z,4.21
2023-01-30T11:08:45.136Z,4.20
2023-01-30T11:10:26.463Z,4.18
2023-01-30T11:12:00.412Z,4.12
2023-01-30T11:13:33.614Z,4.18
2023-01-30T11:15:05.761Z,4.20
2023-01-30T11:16:45.637Z,4.19
2023-01-30T11:19:14.026Z,4.20
2023-01-30T11:20:13.567Z,4.20
2023-01-30T11:22:00.396Z,4.17
2023-01-30T11:23:35.363Z,4.20
2023-01-30T11:25:16.362Z,4.17
2023-01-30T11:26:48.978Z,4.19
2023-01-30T11:28:20.829Z,4.16
2023-01-30T11:30:05.191Z,4.13
2023-01-30T11:31:41.847Z,4.13
2023-01-30T11:33:18.023Z,4.11
2023-01-30T11:35:17.327Z,4.06
2023-01-30T11:36:49.845Z,4.10
2023-01-30T11:38:30.631Z,4.10
2023-01-30T11:40:24.058Z,4.08
2023-01-30T11:41:55.766Z,4.11
2023-01-30T11:43:28.824Z,4.09
2023-01-30T11:45:20.343Z,4.11
2023-01-30T11:46:52.104Z,4.06
2023-01-30T11:48:32.945Z,4.07
2023-01-30T11:50:20.351Z,4.08
2023-01-30T11:51:57.043Z,4.07
2023-01-30T11:53:38.738Z,4.05
2023-01-30T11:55:14.380Z,4.00
2023-01-30T11:56:53.899Z,3.98
2023-01-30T11:58:30.618Z,3.97
2023-01-30T12:00:02.778Z,3.96
2023-01-30T12:01:42.573Z,3.96
2023-01-30T12:03:18.338Z,3.97
2023-01-30T12:04:57.253Z,3.96
2023-01-30T12:06:31.569Z,3.97
2023-01-30T12:08:31.205Z,3.94
2023-01-30T12:10:27.839Z,3.97
2023-01-30T12:11:59.865Z,4.01
2023-01-30T12:13:39.407Z,4.02
2023-01-30T12:15:24.949Z,4.04
2023-01-30T12:16:56.891Z,4.07
2023-01-30T12:18:46.393Z,4.10
2023-01-30T12:20:28.503Z,4.19
2023-01-30T12:22:04.644Z,4.26
2023-01-30T12:23:49.043Z,4.33
2023-01-30T12:25:25.537Z,4.41
2023-01-30T12:27:03.447Z,4.49
2023-01-30T12:28:53.979Z,4.55
2023-01-30T12:30:33.996Z,4.64
2023-01-30T12:32:14.617Z,4.72
2023-01-30T12:33:48.282Z,4.77
2023-01-30T12:35:28.878Z,4.78
2023-01-30T12:37:33.339Z,4.80
2023-01-30T12:39:16.859Z,4.89
2023-01-30T12:41:05.067Z,4.93
2023-01-30T12:42:42.848Z,5.05
2023-01-30T12:44:41.746Z,5.14
2023-01-30T12:46:38.122Z,5.29
2023-01-30T12:49:10.322Z,5.42
2023-01-30T12:51:13.522Z,5.59
2023-01-30T12:53:00.097Z,5.72
2023-01-30T12:54:37.916Z,5.81
2023-01-30T12:56:31.585Z,5.85
2023-01-30T12:58:14.651Z,5.92
2023-01-30T12:59:54.743Z,5.96
2023-01-30T13:01:45.484Z,5.92
2023-01-30T13:03:26.380Z,5.94
2023-01-30T13:05:21.557Z,5.89
2023-01-30T13:07:18.747Z,5.80
2023-01-30T13:09:15.123Z,5.82
2023-01-30T13:11:06.806Z,5.77
2023-01-30T13:12:38.450Z,5.76
2023-01-30T13:14:36.969Z,5.81
2023-01-30T13:16:27.566Z,5.82
2023-01-30T13:18:14.779Z,5.84
2023-01-30T13:20:05.865Z,5.90
2023-01-30T13:21:46.604Z,5.95
2023-01-30T13:23:27.766Z,6.01
2023-01-30T13:25:28.670Z,6.02
2023-01-30T13:27:03.915Z,6.07
2023-01-30T13:28:44.041Z,6.09
2023-01-30T13:30:18.490Z,6.11
2023-01-30T13:31:57.091Z,6.10
2023-01-30T13:33:35.150Z,6.11
2023-01-30T13:35:15.853Z,6.12
2023-01-30T13:37:04.378Z,6.13
2023-01-30T13:38:41.899Z,6.14
2023-01-30T13:40:19.143Z,6.13
2023-01-30T13:41:56.569Z,6.12
2023-01-30T13:43:37.443Z,6.09
2023-01-30T13:45:19.948Z,6.08
2023-01-30T13:46:54.599Z,6.07
2023-01-30T13:48:49.983Z,6.02
2023-01-30T13:50:34.758Z,6.02
2023-01-30T13:52:18.842Z,5.99
2023-01-30T13:54:19.664Z,5.93
2023-01-30T13:55:51.399Z,5.92
2023-01-30T13:58:04.587Z,5.87
2023-01-30T14:00:23.348Z,5.83
2023-01-30T14:02:02.345Z,5.85
2023-01-30T14:03:34.390Z,5.84
2023-01-30T14:05:06.251Z,5.79
2023-01-30T14:06:39.318Z,5.77
2023-01-30T14:08:17.819Z,5.71
2023-01-30T14:10:09.511Z,5.65
2023-01-30T14:11:48.737Z,5.61
2023-01-30T14:13:20.523Z,5.59
2023-01-30T14:15:03.668Z,5.55
2023-01-30T14:16:44.821Z,5.51
2023-01-30T14:18:23.430Z,5.50
2023-01-30T14:20:16.259Z,5.45
2023-01-30T14:21:56.784Z,5.44
2023-01-30T14:23:33.172Z,5.43
2023-01-30T14:25:22.880Z,5.41
2023-01-30T14:26:54.590Z,5.42
2023-01-30T14:28:29.062Z,5.41
2023-01-30T14:30:01.111Z,5.39
2023-01-30T14:31:48.154Z,5.35
2023-01-30T14:33:19.944Z,5.34
2023-01-30T14:35:03.595Z,5.27
2023-01-30T14:36:37.178Z,5.24
2023-01-30T14:38:11.868Z,5.23
2023-01-30T14:39:51.799Z,5.17
2023-01-30T14:41:28.267Z,5.13
2023-01-30T14:43:12.009Z,5.04
2023-01-30T14:44:58.027Z,4.99
2023-01-30T14:46:29.740Z,4.98
2023-01-30T14:48:26.738Z,4.88
2023-01-30T14:50:01.006Z,4.87
2023-01-30T14:51:47.970Z,4.81
2023-01-30T14:53:24.681Z,4.81
2023-01-30T14:54:56.803Z,4.78
2023-01-30T14:56:50.908Z,4.74
2023-01-30T14:58:22.783Z,4.74
2023-01-30T15:00:16.211Z,4.71
2023-01-30T15:01:59.340Z,4.66
2023-01-30T15:03:39.138Z,4.65
2023-01-30T15:05:15.296Z,4.62
2023-01-30T15:06:48.356Z,4.58
2023-01-30T15:08:24.067Z,4.55
2023-01-30T15:10:01.576Z,4.53
2023-01-30T15:11:35.150Z,4.51
2023-01-30T15:13:19.975Z,4.46
2023-01-30T15:14:53.911Z,4.46
2023-01-30T15:16:37.827Z,4.43
2023-01-30T15:18:28.011Z,4.36
2023-01-30T15:20:18.051Z,4.30
2023-01-30T15:22:16.612Z,4.27
2023-01-30T15:24:10.246Z,4.26
2023-01-30T15:26:13.893Z,4.17
2023-01-30T15:27:57.715Z,4.16
2023-01-30T15:29:51.218Z,4.08
2023-01-30T15:31:23.867Z,4.06
2023-01-30T15:33:22.927Z,3.98
2023-01-30T15:35:12.588Z,3.96
2023-01-30T15:36:44.360Z,3.94
2023-01-30T15:38:25.464Z,3.89
2023-01-30T15:40:15.591Z,3.84
2023-01-30T15:41:48.592Z,3.83
2023-01-30T15:43:44.788Z,3.77
2023-01-30T15:45:47.669Z,3.72
2023-01-30T15:48:01.610Z,3.62
2023-01-30T15:49:55.729Z,3.58
2023-01-30T15:51:31.036Z,3.54
2023-01-30T15:53:03.297Z,3.49
2023-01-30T15:54:35.075Z,3.42
2023-01-30T15:56:12.097Z,3.36
2023-01-30T15:57:50.300Z,3.29
2023-01-30T15:59:31.727Z,3.23
2023-01-30T16:01:03.881Z,3.18
2023-01-30T16:02:36.915Z,3.12
2023-01-30T16:04:26.263Z,3.06
2023-01-30T16:05:58.693Z,3.05
2023-01-30T16:07:30.596Z,3.01
2023-01-30T16:09:06.582Z,2.97
2023-01-30T16:10:45.901Z,2.94
2023-01-30T16:12:30.729Z,2.91
2023-01-30T16:14:02.638Z,2.91
2023-01-30T16:15:40.440Z,2.90
2023-01-30T16:17:12.197Z,2.89
2023-01-30T16:18:56.020Z,2.89
2023-01-30T16:20:29.139Z,2.89
2023-01-30T16:22:06.570Z,2.91
2023-01-30T16:24:03.904Z,2.87
2023-01-30T16:25:35.788Z,2.89
2023-01-30T16:27:08.567Z,2.90
2023-01-30T16:28:40.922Z,2.92
2023-01-30T16:30:12.947Z,2.91
2023-01-30T16:31:47.475Z,2.91
2023-01-30T16:33:19.348Z,2.95
2023-01-30T16:34:51.094Z,2.96
2023-01-30T16:36:22.781Z,2.97
2023-01-30T16:37:56.184Z,2.99
2023-01-30T16:39:29.716Z,3.02
2023-01-30T16:41:02.121Z,3.02
2023-01-30T16:42:33.896Z,3.04
2023-01-30T16:44:20.509Z,3.04
2023-01-30T16:45:52.256Z,3.10
2023-01-30T16:47:27.076Z,3.10
2023-01-30T16:49:04.411Z,3.12
2023-01-30T16:50:36.169Z,3.15
2023-01-30T16:52:31.741Z,3.15
2023-01-30T16:54:05.056Z,3.20
2023-01-30T16:55:37.308Z,3.20
2023-01-30T16:57:25.825Z,3.23
2023-01-30T16:59:00.667Z,3.27
2023-01-30T17:00:40.573Z,3.26
2023-01-30T17:02:28.321Z,3.27
2023-01-30T17:04:02.086Z,3.32
2023-01-30T17:05:40.388Z,3.34
2023-01-30T17:07:32.996Z,3.33
2023-01-30T17:09:06.673Z,3.36
2023-01-30T17:10:52.265Z,3.32
2023-01-30T17:12:26.860Z,3.33
2023-01-30T17:14:24.584Z,3.28
2023-01-30T17:16:22.077Z,3.28
2023-01-30T17:17:53.848Z,3.31
2023-01-30T17:19:25.595Z,3.29
2023-01-30T17:20:57.320Z,3.28
2023-01-30T17:22:29.211Z,3.28
2023-01-30T17:24:03.820Z,3.26
2023-01-30T17:25:43.081Z,3.26
2023-01-30T17:27:16.323Z,3.26
2023-01-30T17:28:48.089Z,3.26
2023-01-30T17:30:20.447Z,3.27
2023-01-30T17:31:53.793Z,3.26
2023-01-30T17:33:26.015Z,3.26
2023-01-30T17:34:59.566Z,3.28
2023-01-30T17:36:31.639Z,3.29
2023-01-30T17:38:05.949Z,3.30
2023-01-30T17:39:37.864Z,3.33
2023-01-30T17:41:19.305Z,3.34
2023-01-30T17:42:51.416Z,3.36
2023-01-30T17:44:23.182Z,3.35
2023-01-30T17:45:56.777Z,3.37
2023-01-30T17:47:30.601Z,3.35
2023-01-30T17:49:02.501Z,3.35
2023-01-30T17:50:34.285Z,3.33
2023-01-30T17:52:07.234Z,3.31
2023-01-30T17:53:39.205Z,3.31
2023-01-30T17:55:13.956Z,3.31
2023-01-30T17:56:52.338Z,3.28
2023-01-30T17:58:24.258Z,3.24
2023-01-30T17:59:55.994Z,3.25
2023-01-30T18:01:27.812Z,3.25
2023-01-30T18:02:59.596Z,3.28
2023-01-30T18:04:31.377Z,3.27
2023-01-30T18:06:03.194Z,3.27
2023-01-30T18:07:35.140Z,3.27
2023-01-30T18:09:07.313Z,3.28
2023-01-30T18:10:39.048Z,3.28
2023-01-30T18:12:10.812Z,3.28
2023-01-30T18:13:43.079Z,3.31
2023-01-30T18:15:16.367Z,3.29
2023-01-30T18:16:48.323Z,3.32
2023-01-30T18:18:20.275Z,3.32
2023-01-30T18:19:54.407Z,3.34
2023-01-30T18:21:26.340Z,3.35
2023-01-30T18:22:58.195Z,3.35
2023-01-30T18:24:29.991Z,3.36
2023-01-30T18:26:01.723Z,3.34
2023-01-30T18:27:33.471Z,3.36
2023-01-30T18:29:05.195Z,3.36
2023-01-30T18:30:37.531Z,3.39
2023-01-30T18:32:09.298Z,3.40
2023-01-30T18:33:44.619Z,3.38
2023-01-30T18:35:16.480Z,3.41
2023-01-30T18:36:48.265Z,3.41
2023-01-30T18:38:20.151Z,3.41
2023-01-30T18:39:51.858Z,3.42
2023-01-30T18:41:25.323Z,3.43
2023-01-30T18:42:57.113Z,3.46
2023-01-30T18:44:28.840Z,3.47
2023-01-30T18:46:09.358Z,3.48
2023-01-30T18:47:41.184Z,3.49
2023-01-30T18:49:12.889Z,3.52
2023-01-30T18:50:44.626Z,3.54
2023-01-30T18:52:16.380Z,3.55
2023-01-30T18:53:50.372Z,3.56
2023-01-30T18:55:25.328Z,3.57
2023-01-30T18:56:57.304Z,3.61
2023-01-30T18:58:31.028Z,3.63
2023-01-30T19:00:03.183Z,3.64
2023-01-30T19:01:38.897Z,3.68
2023-01-30T19:03:10.751Z,3.68
2023-01-30T19:04:42.588Z,3.72
2023-01-30T19:06:17.820Z,3.75
2023-01-30T19:07:49.574Z,3.79
2023-01-30T19:09:21.543Z,3.78
2023-01-30T19:10:53.352Z,3.78
2023-01-30T19:12:43.835Z,3.83
2023-01-30T19:14:15.596Z,3.82
2023-01-30T19:15:47.424Z,3.84
2023-01-30T19:17:19.386Z,3.84
2023-01-30T19:18:55.462Z,3.85
2023-01-30T19:20:27.786Z,3.86
2023-01-30T19:22:00.000Z,3.89
2023-01-30T19:23:34.006Z,3.89
2023-01-30T19:25:06.287Z,3.89
2023-01-30T19:26:38.127Z,3.91
2023-01-30T19:28:09.912Z,3.92
2023-01-30T19:29:41.889Z,3.92
2023-01-30T19:31:16.353Z,3.92
2023-01-30T19:32:48.308Z,3.93
2023-01-30T19:34:20.189Z,3.96
2023-01-30T19:35:52.164Z,3.97
2023-01-30T19:37:24.379Z,3.98
2023-01-30T19:38:57.777Z,4.00
2023-01-30T19:40:31.092Z,4.01
2023-01-30T19:42:02.879Z,4.01
2023-01-30T19:43:34.643Z,4.04
2023-01-30T19:45:06.967Z,4.06
2023-01-30T19:46:38.785Z,4.07
2023-01-30T19:48:10.987Z,4.08
2023-01-30T19:49:42.774Z,4.12
2023-01-30T19:51:17.411Z,4.12
2023-01-30T19:52:52.715Z,4.15
2023-01-30T19:54:24.803Z,4.18
2023-01-30T19:55:56.563Z,4.20
2023-01-30T19:57:28.332Z,4.19
2023-01-30T19:59:01.292Z,4.22
2023-01-30T20:00:33.106Z,4.24
2023-01-30T20:02:06.729Z,4.26
2023-01-30T20:03:39.325Z,4.27
2023-01-30T20:05:11.428Z,4.28
2023-01-30T20:06:44.495Z,4.29
2023-01-30T20:08:31.418Z,4.28
2023-01-30T20:10:05.788Z,4.31
2023-01-30T20:11:39.685Z,4.32
2023-01-30T20:13:11.516Z,4.35
2023-01-30T20:14:43.248Z,4.35
2023-01-30T20:16:19.764Z,4.34
2023-01-30T20:17:51.691Z,4.37
2023-01-30T20:19:23.583Z,4.39
2023-01-30T20:20:55.351Z,4.41
2023-01-30T20:22:27.124Z,4.42
2023-01-30T20:24:00.228Z,4.43
2023-01-30T20:25:35.704Z,4.43
2023-01-30T20:27:07.512Z,4.43
2023-01-30T20:28:39.342Z,4.43
2023-01-30T20:30:11.591Z,4.42
2023-01-30T20:31:43.372Z,4.42
2023-01-30T20:33:15.099Z,4.40
2023-01-30T20:34:47.352Z,4.42
2023-01-30T20:36:20.350Z,4.40
2023-01-30T20:37:52.744Z,4.43
2023-01-30T20:39:24.501Z,4.44
2023-01-30T20:41:10.735Z,4.40
2023-01-30T20:42:42.529Z,4.41
2023-01-30T20:44:15.537Z,4.41
2023-01-30T20:45:47.256Z,4.41
2023-01-30T20:47:19.097Z,4.37
2023-01-30T20:48:54.210Z,4.34
2023-01-30T20:50:27.661Z,4.31
2023-01-30T20:51:59.404Z,4.27
2023-01-30T20:53:31.465Z,4.22
2023-01-30T20:55:03.953Z,4.20
2023-01-30T20:56:43.112Z,4.16
2023-01-30T20:58:14.908Z,4.12
2023-01-30T20:59:46.874Z,4.09
2023-01-30T21:01:21.735Z,4.08
2023-01-30T21:02:53.628Z,4.05
2023-01-30T21:04:25.452Z,4.05
2023-01-30T21:06:01.518Z,4.04
2023-01-30T21:07:33.361Z,4.02
2023-01-30T21:09:07.531Z,4.01
2023-01-30T21:10:46.525Z,4.02
2023-01-30T21:12:20.015Z,4.00
2023-01-30T21:13:52.174Z,3.98
2023-01-30T21:15:23.890Z,4.02
2023-01-30T21:16:55.681Z,4.04
2023-01-30T21:18:29.813Z,4.04
2023-01-30T21:20:01.714Z,4.03
2023-01-30T21:21:42.739Z,4.05
2023-01-30T21:23:14.674Z,4.09
2023-01-30T21:24:46.377Z,4.12
2023-01-30T21:26:19.859Z,4.12